createdAt,value
2022-09-06T00:02:19.426Z,101163.55
2022-09-06T00:04:46.359Z,101159.26
2022-09-06T00:07:13.178Z,101157.19
2022-09-06T00:09:39.948Z,101158.07
2022-09-06T00:12:06.737Z,101158.35
2022-09-06T00:14:33.558Z,101151.05
2022-09-06T00:17:00.970Z,101145.19
2022-09-06T00:19:27.930Z,101145.11
2022-09-06T00:21:54.687Z,101148.58
2022-09-06T00:24:21.372Z,101150.84
2022-09-06T00:26:48.037Z,101151.66
2022-09-06T00:29:14.973Z,101152.36
2022-09-06T00:31:41.657Z,101154.26
2022-09-06T00:34:09.432Z,101158.72
2022-09-06T00:36:36.291Z,101161.81
2022-09-06T00:39:03.513Z,101159.04
2022-09-06T00:41:30.823Z,101157.60
2022-09-06T00:43:57.408Z,101158.66
2022-09-06T00:46:28.241Z,101164.31
2022-09-06T00:49:04.723Z,101157.35
2022-09-06T00:51:34.496Z,101152.45
2022-09-06T00:54:06.896Z,101140.83
2022-09-06T00:56:38.212Z,101144.75
2022-09-06T00:59:05.403Z,101149.95
2022-09-06T01:01:32.181Z,101149.99
2022-09-06T01:03:59.777Z,101152.10
2022-09-06T01:06:35.091Z,101151.20
2022-09-06T01:09:33.984Z,101159.13
2022-09-06T01:12:08.529Z,101158.88
2022-09-06T01:14:53.738Z,101159.67
2022-09-06T01:17:40.143Z,101159.34
2022-09-06T01:20:31.869Z,101158.77
2022-09-06T01:23:13.989Z,101160.68
2022-09-06T01:26:06.542Z,101162.54
2022-09-06T01:28:45.987Z,101159.16
2022-09-06T01:31:44.682Z,101155.89
2022-09-06T01:34:51.055Z,101155.70
2022-09-06T01:37:22.715Z,101151.09
2022-09-06T01:39:49.481Z,101146.05
2022-09-06T01:42:20.596Z,101142.57
2022-09-06T01:44:53.741Z,101136.54
2022-09-06T01:47:22.967Z,101130.95
2022-09-06T01:50:01.686Z,101130.50
2022-09-06T01:52:50.362Z,101125.88
2022-09-06T01:56:05.542Z,101123.68
2022-09-06T01:59:01.972Z,101127.21
2022-09-06T02:01:38.083Z,101127.71
2022-09-06T02:04:10.711Z,101125.46
2022-09-06T02:06:49.197Z,101119.77
2022-09-06T02:09:21.994Z,101119.30
2022-09-06T02:12:00.566Z,101116.46
2022-09-06T02:14:33.320Z,101110.60
2022-09-06T02:17:02.289Z,101107.97
2022-09-06T02:19:39.521Z,101104.71
2022-09-06T02:22:10.174Z,101106.51
2022-09-06T02:24:39.600Z,101106.77
2022-09-06T02:27:06.981Z,101108.15
2022-09-06T02:29:35.467Z,101113.18
2022-09-06T02:32:09.947Z,101111.48
2022-09-06T02:34:40.076Z,101115.25
2022-09-06T02:37:07.832Z,101116.69
2022-09-06T02:39:34.799Z,101114.09
2022-09-06T02:42:02.584Z,101113.45
2022-09-06T02:44:29.287Z,101106.98
2022-09-06T02:46:57.305Z,101111.81
2022-09-06T02:49:26.117Z,101113.75
2022-09-06T02:51:53.058Z,101111.69
2022-09-06T02:54:20.010Z,101103.45
2022-09-06T02:56:51.518Z,101101.33
2022-09-06T02:59:19.385Z,101101.58
2022-09-06T03:01:46.224Z,101101.92
2022-09-06T03:04:13.391Z,101100.64
2022-09-06T03:06:40.326Z,101101.77
2022-09-06T03:09:07.392Z,101095.12
2022-09-06T03:11:34.144Z,101090.86
2022-09-06T03:14:00.979Z,101087.70
2022-09-06T03:16:27.842Z,101092.02
2022-09-06T03:18:54.539Z,101094.25
2022-09-06T03:21:21.309Z,101101.98
2022-09-06T03:23:48.254Z,101095.45
2022-09-06T03:26:15.160Z,101088.06
2022-09-06T03:28:43.158Z,101087.71
2022-09-06T03:31:10.405Z,101089.45
2022-09-06T03:33:37.280Z,101093.39
2022-09-06T03:36:07.398Z,101091.94
2022-09-06T03:38:34.449Z,101095.65
2022-09-06T03:41:01.259Z,101096.64
2022-09-06T03:43:28.454Z,101096.30
2022-09-06T03:46:00.083Z,101094.36
2022-09-06T03:48:31.204Z,101093.02
2022-09-06T03:51:01.237Z,101090.77
2022-09-06T03:53:29.511Z,101089.05
2022-09-06T03:55:58.167Z,101085.48
2022-09-06T03:58:29.817Z,101082.73
2022-09-06T04:01:01.427Z,101084.49
2022-09-06T04:03:28.624Z,101082.33
2022-09-06T04:05:55.817Z,101087.64
2022-09-06T04:08:22.391Z,101085.42
2022-09-06T04:10:56.510Z,101082.92
2022-09-06T04:13:24.275Z,101091.82
2022-09-06T04:15:51.124Z,101094.20
2022-09-06T04:18:17.916Z,101092.67
2022-09-06T04:20:47.802Z,101093.87
2022-09-06T04:23:14.738Z,101096.23
2022-09-06T04:25:41.354Z,101097.48
2022-09-06T04:28:07.971Z,101100.34
2022-09-06T04:31:31.741Z,101099.64
2022-09-06T04:33:49.078Z,101097.69
2022-09-06T04:36:16.304Z,101094.40
2022-09-06T04:38:44.850Z,101088.38
2022-09-06T04:41:14.047Z,101083.48
2022-09-06T04:43:40.625Z,101078.49
2022-09-06T04:46:21.856Z,101078.95
2022-09-06T04:48:49.168Z,101083.30
2022-09-06T04:51:16.080Z,101085.65
2022-09-06T04:53:43.038Z,101087.30
2022-09-06T04:56:21.019Z,101086.38
2022-09-06T04:58:49.231Z,101084.31
2022-09-06T05:01:16.779Z,101084.45
2022-09-06T05:03:43.499Z,101079.58
2022-09-06T05:06:19.520Z,101073.55
2022-09-06T05:08:46.619Z,101070.50
2022-09-06T05:11:14.013Z,101066.02
2022-09-06T05:13:42.218Z,101065.71
2022-09-06T05:16:09.575Z,101072.30
2022-09-06T05:18:36.636Z,101078.36
2022-09-06T05:21:06.265Z,101081.75
2022-09-06T05:23:33.087Z,101079.88
2022-09-06T05:25:59.940Z,101077.37
2022-09-06T05:28:26.738Z,101079.31
2022-09-06T05:30:53.865Z,101070.33
2022-09-06T05:33:22.675Z,101067.27
2022-09-06T05:35:49.531Z,101065.87
2022-09-06T05:38:16.332Z,101065.13
2022-09-06T05:40:43.464Z,101066.72
2022-09-06T05:43:10.063Z,101067.75
2022-09-06T05:45:38.168Z,101073.27
2022-09-06T05:48:05.272Z,101069.84
2022-09-06T05:50:32.314Z,101067.92
2022-09-06T05:52:59.065Z,101070.35
2022-09-06T05:55:26.163Z,101064.29
2022-09-06T05:57:53.095Z,101057.67
2022-09-06T06:00:20.340Z,101060.89
2022-09-06T06:02:48.435Z,101060.14
2022-09-06T06:05:16.123Z,101061.92
2022-09-06T06:07:42.947Z,101058.71
2022-09-06T06:10:10.324Z,101062.72
2022-09-06T06:12:37.361Z,101066.91
2022-09-06T06:15:05.771Z,101070.04
2022-09-06T06:17:32.839Z,101071.23
2022-09-06T06:19:59.767Z,101078.02
2022-09-06T06:22:26.947Z,101089.69
2022-09-06T06:24:53.997Z,101099.63
2022-09-06T06:27:21.177Z,101113.68
2022-09-06T06:29:47.952Z,101130.59
2022-09-06T06:32:15.182Z,101149.21
2022-09-06T06:34:42.005Z,101164.06
2022-09-06T06:37:09.139Z,101170.05
2022-09-06T06:39:36.019Z,101157.83
2022-09-06T06:42:03.624Z,101155.79
2022-09-06T06:44:30.522Z,101162.09
2022-09-06T06:46:58.764Z,101171.23
2022-09-06T06:49:25.440Z,101165.03
2022-09-06T06:51:52.546Z,101165.46
2022-09-06T06:54:19.887Z,101156.77
2022-09-06T06:56:47.045Z,101149.38
2022-09-06T06:59:14.479Z,101146.30
2022-09-06T07:01:41.653Z,101144.48
2022-09-06T07:04:10.441Z,101141.42
2022-09-06T07:12:25.441Z,101134.08
2022-09-06T07:14:52.443Z,101137.70
2022-09-06T07:17:19.257Z,101139.34
2022-09-06T07:22:33.252Z,101146.42
2022-09-06T07:25:00.158Z,101139.55
2022-09-06T07:30:14.373Z,101147.34
2022-09-06T07:32:41.551Z,101147.10
2022-09-06T07:35:08.995Z,101139.77
2022-09-06T07:37:36.047Z,101135.92
2022-09-06T07:40:03.724Z,101137.98
2022-09-06T07:42:36.250Z,101135.02
2022-09-06T07:45:04.565Z,101138.19
2022-09-06T07:53:13.147Z,101138.85
2022-09-06T07:55:42.866Z,101139.05
2022-09-06T07:58:09.564Z,101141.33
2022-09-06T08:00:38.300Z,101140.61
2022-09-06T08:03:05.251Z,101133.64
2022-09-06T08:11:08.947Z,101131.89
2022-09-06T08:13:36.706Z,101139.25
2022-09-06T08:16:09.111Z,101141.23
2022-09-06T08:18:37.295Z,101143.02
2022-09-06T08:21:12.968Z,101145.27
2022-09-06T08:23:49.624Z,101148.59
2022-09-06T08:26:17.514Z,101145.23
2022-09-06T08:28:44.550Z,101141.73
2022-09-06T08:31:16.324Z,101134.12
2022-09-06T08:33:44.186Z,101126.86
2022-09-06T08:36:11.883Z,101115.11
2022-09-06T08:38:39.048Z,101118.95
2022-09-06T08:41:12.065Z,101114.27
2022-09-06T08:43:39.599Z,101114.25
2022-09-06T08:46:09.538Z,101115.70
2022-09-06T08:48:39.721Z,101121.24
2022-09-06T08:51:23.569Z,101116.48
2022-09-06T08:53:52.250Z,101117.08
2022-09-06T08:56:28.258Z,101118.02
2022-09-06T08:59:08.534Z,101111.65
2022-09-06T09:02:07.449Z,101105.76
2022-09-06T09:04:36.487Z,101100.60
2022-09-06T09:07:23.714Z,101095.68
2022-09-06T09:09:52.385Z,101091.67
2022-09-06T09:12:23.417Z,101092.58
2022-09-06T09:14:55.647Z,101097.25
2022-09-06T09:17:29.280Z,101103.90
2022-09-06T09:19:56.755Z,101102.16
2022-09-06T09:22:25.378Z,101099.48
2022-09-06T09:24:53.068Z,101099.27
2022-09-06T09:27:25.886Z,101098.19
2022-09-06T09:32:45.164Z,101089.88
2022-09-06T09:35:17.212Z,101079.23
2022-09-06T09:40:25.867Z,101072.15
2022-09-06T09:42:55.338Z,101073.25
2022-09-06T09:45:31.284Z,101071.98
2022-09-06T09:48:20.232Z,101071.36
2022-09-06T09:50:47.575Z,101079.19
2022-09-06T09:53:16.986Z,101079.48
2022-09-06T09:55:44.376Z,101075.36
2022-09-06T09:58:40.300Z,101069.10
2022-09-06T10:01:29.266Z,101066.50
2022-09-06T10:07:10.171Z,101059.60
2022-09-06T10:09:40.644Z,101055.08
2022-09-06T10:12:07.751Z,101051.23
2022-09-06T10:14:46.043Z,101057.40
2022-09-06T10:17:22.570Z,101056.13
2022-09-06T10:19:49.944Z,101057.45
2022-09-06T10:22:44.692Z,101053.66
2022-09-06T10:25:41.487Z,101052.52
2022-09-06T10:28:31.584Z,101053.48
2022-09-06T10:31:13.393Z,101055.10
2022-09-06T10:34:10.017Z,101047.48
2022-09-06T10:36:40.735Z,101046.48
2022-09-06T10:39:30.051Z,101045.11
2022-09-06T10:42:10.666Z,101041.83
2022-09-06T10:44:52.529Z,101042.83
2022-09-06T10:47:19.853Z,101042.95
2022-09-06T10:49:53.032Z,101038.94
2022-09-06T10:52:26.910Z,101037.31
2022-09-06T10:54:58.080Z,101035.98
2022-09-06T11:00:46.666Z,101033.01
2022-09-06T11:06:28.816Z,101028.55
2022-09-06T11:09:21.718Z,101023.73
2022-09-06T11:11:58.002Z,101016.82
2022-09-06T11:14:27.731Z,101012.10
2022-09-06T11:17:05.010Z,101012.96
2022-09-06T11:19:53.528Z,101008.89
2022-09-06T11:22:48.327Z,101020.59
2022-09-06T11:25:31.576Z,101022.65
2022-09-06T11:28:00.543Z,101024.11
2022-09-06T11:30:29.862Z,101020.63
2022-09-06T11:33:30.437Z,101016.70
2022-09-06T11:36:34.369Z,101008.92
2022-09-06T11:39:03.422Z,101003.69
2022-09-06T11:41:36.833Z,100996.77
2022-09-06T11:44:05.150Z,100997.48
2022-09-06T11:46:34.979Z,100988.94
2022-09-06T11:49:29.561Z,100987.76
2022-09-06T11:51:56.512Z,100980.71
2022-09-06T11:54:29.698Z,100981.52
2022-09-06T11:57:08.990Z,100980.88
2022-09-06T11:59:41.788Z,100979.94
2022-09-06T12:02:30.352Z,100980.53
2022-09-06T12:05:04.617Z,100972.48
2022-09-06T12:07:33.542Z,100970.59
2022-09-06T12:10:42.029Z,100957.73
2022-09-06T12:13:33.311Z,100967.09
2022-09-06T12:16:00.557Z,100965.55
2022-09-06T12:18:49.067Z,100963.37
2022-09-06T12:21:34.545Z,100967.09
2022-09-06T12:24:01.833Z,100966.31
2022-09-06T12:26:55.516Z,100960.85
2022-09-06T12:29:26.659Z,100960.82
2022-09-06T12:32:04.564Z,100958.16
2022-09-06T12:34:33.727Z,100949.27
2022-09-06T12:37:10.539Z,100953.96
2022-09-06T12:39:37.824Z,100958.52
2022-09-06T12:42:07.922Z,100959.79
2022-09-06T12:44:38.883Z,100960.89
2022-09-06T12:47:23.728Z,100953.58
2022-09-06T12:50:16.124Z,100949.10
2022-09-06T12:52:47.217Z,100944.58
2022-09-06T12:55:16.786Z,100940.98
2022-09-06T12:57:52.671Z,100938.91
2022-09-06T13:00:21.277Z,100932.64
2022-09-06T13:03:00.141Z,100931.29
2022-09-06T13:05:28.055Z,100923.91
2022-09-06T13:07:58.665Z,100923.77
2022-09-06T13:10:27.651Z,100925.27
2022-09-06T13:12:57.074Z,100926.79
2022-09-06T13:15:31.386Z,100925.08
2022-09-06T13:18:20.284Z,100918.81
2022-09-06T13:21:05.222Z,100914.55
2022-09-06T13:24:03.984Z,100913.66
2022-09-06T13:26:40.319Z,100906.66
2022-09-06T13:29:30.782Z,100898.86
2022-09-06T13:32:00.191Z,100895.45
2022-09-06T13:34:33.778Z,100893.61
2022-09-06T13:37:09.139Z,100894.58
2022-09-06T13:39:40.306Z,100897.50
2022-09-06T13:42:33.140Z,100894.36
2022-09-06T13:45:23.645Z,100892.97
2022-09-06T13:47:50.307Z,100890.57
2022-09-06T13:50:17.014Z,100889.20
2022-09-06T13:52:44.091Z,100885.20
2022-09-06T13:55:16.071Z,100882.84
2022-09-06T13:57:43.218Z,100877.97
2022-09-06T14:00:13.813Z,100873.40
2022-09-06T14:02:41.843Z,100872.15
2022-09-06T14:05:09.264Z,100867.98
2022-09-06T14:07:36.286Z,100870.36
2022-09-06T14:10:03.197Z,100868.42
2022-09-06T14:12:29.974Z,100865.11
2022-09-06T14:14:56.488Z,100866.73
2022-09-06T14:17:23.425Z,100868.19
2022-09-06T14:19:50.866Z,100859.48
2022-09-06T14:22:17.756Z,100861.77
2022-09-06T14:24:44.487Z,100859.23
2022-09-06T14:27:11.661Z,100863.04
2022-09-06T14:29:38.613Z,100862.02
2022-09-06T14:32:05.665Z,100856.91
2022-09-06T14:34:32.691Z,100857.83
2022-09-06T14:36:59.595Z,100856.46
2022-09-06T14:39:27.553Z,100851.70
2022-09-06T14:41:54.476Z,100855.69
2022-09-06T14:44:21.552Z,100854.10
2022-09-06T14:46:49.129Z,100849.47
2022-09-06T14:49:16.511Z,100843.41
2022-09-06T14:51:43.433Z,100847.55
2022-09-06T14:54:12.949Z,100846.73
2022-09-06T14:56:41.258Z,100845.84
2022-09-06T14:59:09.576Z,100840.77
2022-09-06T15:01:38.761Z,100834.77
2022-09-06T15:04:07.772Z,100836.66
2022-09-06T15:06:36.916Z,100827.98
2022-09-06T15:09:05.574Z,100821.05
2022-09-06T15:11:36.613Z,100823.48
2022-09-06T15:14:05.290Z,100826.73
2022-09-06T15:16:32.901Z,100820.79
2022-09-06T15:19:00.175Z,100819.98
2022-09-06T15:21:27.265Z,100819.98
2022-09-06T15:23:54.543Z,100816.67
2022-09-06T15:26:21.872Z,100819.20
2022-09-06T15:28:48.993Z,100817.83
2022-09-06T15:31:17.436Z,100817.08
2022-09-06T15:33:44.473Z,100812.30
2022-09-06T15:36:12.252Z,100806.36
2022-09-06T15:38:48.100Z,100806.33
2022-09-06T15:41:18.451Z,100806.67
2022-09-06T15:43:49.303Z,100805.71
2022-09-06T15:46:18.016Z,100803.17
2022-09-06T15:48:46.851Z,100800.59
2022-09-06T15:51:16.093Z,100797.49
2022-09-06T15:53:43.670Z,100798.23
2022-09-06T15:56:13.132Z,100794.56
2022-09-06T15:58:41.137Z,100789.96
2022-09-06T16:01:10.251Z,100787.99
2022-09-06T16:03:39.086Z,100787.46
2022-09-06T16:06:26.811Z,100786.85
2022-09-06T16:09:05.649Z,100783.65
2022-09-06T16:11:33.678Z,100777.49
2022-09-06T16:14:00.577Z,100775.92
2022-09-06T16:16:28.293Z,100769.30
2022-09-06T16:18:55.422Z,100768.02
2022-09-06T16:21:25.071Z,100767.22
2022-09-06T16:23:56.821Z,100767.46
2022-09-06T16:26:25.119Z,100762.58
2022-09-06T16:28:52.770Z,100763.17
2022-09-06T16:31:21.246Z,100761.68
2022-09-06T16:33:49.067Z,100760.52
2022-09-06T16:36:16.345Z,100756.68
2022-09-06T16:38:44.149Z,100754.07
2022-09-06T16:41:14.469Z,100752.63
2022-09-06T16:43:41.719Z,100746.25
2022-09-06T16:46:09.261Z,100747.67
2022-09-06T16:48:36.204Z,100742.40
2022-09-06T16:51:16.210Z,100743.34
2022-09-06T16:53:45.067Z,100740.05
2022-09-06T16:56:14.557Z,100745.41
2022-09-06T16:58:42.132Z,100749.56
2022-09-06T17:01:09.729Z,100744.39
2022-09-06T17:03:37.678Z,100742.11
2022-09-06T17:06:08.091Z,100742.79
2022-09-06T17:08:36.387Z,100741.73
2022-09-06T17:11:11.747Z,100745.76
2022-09-06T17:13:38.662Z,100741.25
2022-09-06T17:16:27.445Z,100741.12
2022-09-06T17:18:54.379Z,100746.02
2022-09-06T17:21:22.373Z,100744.02
2022-09-06T17:23:49.984Z,100747.52
2022-09-06T17:26:21.195Z,100747.88
2022-09-06T17:28:51.431Z,100755.13
2022-09-06T17:31:23.658Z,100755.95
2022-09-06T17:33:53.254Z,100751.48
2022-09-06T17:36:25.763Z,100749.36
2022-09-06T17:38:54.053Z,100751.89
2022-09-06T17:41:22.164Z,100753.94
2022-09-06T17:43:48.869Z,100758.26
2022-09-06T17:46:15.897Z,100761.70
2022-09-06T17:48:43.545Z,100763.77
2022-09-06T17:51:11.605Z,100766.63
2022-09-06T17:53:38.972Z,100769.94
2022-09-06T17:56:11.009Z,100771.88
2022-09-06T17:58:41.421Z,100775.52
2022-09-06T18:01:10.408Z,100776.55
2022-09-06T18:03:39.996Z,100778.41
2022-09-06T18:06:12.063Z,100782.31
2022-09-06T18:08:40.855Z,100780.80
2022-09-06T18:11:13.300Z,100776.55
2022-09-06T18:13:41.928Z,100783.18
2022-09-06T18:16:09.685Z,100787.84
2022-09-06T18:18:36.533Z,100790.42
2022-09-06T18:21:09.488Z,100787.61
2022-09-06T18:23:36.737Z,100788.81
2022-09-06T18:26:06.902Z,100796.33
2022-09-06T18:28:35.796Z,100793.08
2022-09-06T18:31:14.171Z,100792.95
2022-09-06T18:33:42.241Z,100787.14
2022-09-06T18:36:10.324Z,100787.14
2022-09-06T18:38:38.571Z,100791.23
2022-09-06T18:41:30.566Z,100789.64
2022-09-06T18:44:02.469Z,100792.27
2022-09-06T18:46:34.439Z,100792.19
2022-09-06T18:49:01.781Z,100790.83
2022-09-06T18:51:28.688Z,100793.14
2022-09-06T18:53:56.749Z,100794.43
2022-09-06T18:56:24.026Z,100794.61
2022-09-06T18:58:53.741Z,100792.27
2022-09-06T19:01:23.746Z,100792.88
2022-09-06T19:03:50.815Z,100791.80
2022-09-06T19:06:20.270Z,100793.77
2022-09-06T19:08:47.654Z,100793.85
2022-09-06T19:11:17.828Z,100799.32
2022-09-06T19:13:45.801Z,100798.79
2022-09-06T19:16:13.984Z,100800.62
2022-09-06T19:18:41.810Z,100797.25
2022-09-06T19:21:11.120Z,100795.23
2022-09-06T19:23:40.920Z,100793.80
2022-09-06T19:26:14.590Z,100795.66
2022-09-06T19:28:41.386Z,100789.59
2022-09-06T19:31:15.892Z,100787.15
2022-09-06T19:33:44.347Z,100786.30
2022-09-06T19:36:12.462Z,100791.07
2022-09-06T19:39:02.126Z,100791.59
2022-09-06T19:41:30.276Z,100784.66
2022-09-06T19:43:58.201Z,100781.30
2022-09-06T19:46:25.591Z,100780.55
2022-09-06T19:48:54.120Z,100779.17
2022-09-06T19:51:21.303Z,100780.55
2022-09-06T19:53:50.021Z,100777.46
2022-09-06T19:56:20.315Z,100774.81
2022-09-06T19:58:46.901Z,100773.92
2022-09-06T20:01:17.954Z,100776.00
2022-09-06T20:03:44.948Z,100773.02
2022-09-06T20:06:12.161Z,100770.77
2022-09-06T20:08:40.110Z,100769.90
2022-09-06T20:11:09.002Z,100770.10
2022-09-06T20:13:37.824Z,100772.80
2022-09-06T20:16:09.806Z,100774.84
2022-09-06T20:18:37.741Z,100773.48
2022-09-06T20:21:07.718Z,100773.38
2022-09-06T20:23:35.356Z,100765.16
2022-09-06T20:26:07.167Z,100762.52
2022-09-06T20:28:35.065Z,100755.46
2022-09-06T20:31:12.056Z,100758.31
2022-09-06T20:33:39.546Z,100755.11
2022-09-06T20:36:08.057Z,100754.15
2022-09-06T20:38:36.852Z,100751.11
2022-09-06T20:41:16.205Z,100746.06
2022-09-06T20:43:43.266Z,100745.03
2022-09-06T20:46:15.375Z,100740.65
2022-09-06T20:48:45.098Z,100737.82
2022-09-06T20:51:19.827Z,100738.58
2022-09-06T20:53:57.741Z,100729.45
2022-09-06T20:56:28.127Z,100728.19
2022-09-06T20:58:57.068Z,100722.55
2022-09-06T21:01:26.132Z,100725.48
2022-09-06T21:03:55.322Z,100722.60
2022-09-06T21:06:23.083Z,100726.73
2022-09-06T21:08:50.589Z,100725.14
2022-09-06T21:11:17.750Z,100721.23
2022-09-06T21:13:47.844Z,100718.66
2022-09-06T21:16:14.631Z,100718.20
2022-09-06T21:18:41.549Z,100713.86
2022-09-06T21:21:08.677Z,100715.08
2022-09-06T21:23:39.182Z,100715.84
2022-09-06T21:26:10.995Z,100717.11
2022-09-06T21:28:40.001Z,100717.20
2022-09-06T21:31:12.695Z,100715.81
2022-09-06T21:33:41.832Z,100715.55
2022-09-06T21:36:11.415Z,100722.37
2022-09-06T21:38:44.363Z,100719.12
2022-09-06T21:41:12.808Z,100719.40
2022-09-06T21:43:40.293Z,100724.40
2022-09-06T21:46:18.405Z,100727.04
2022-09-06T21:48:47.071Z,100732.45
2022-09-06T21:51:15.871Z,100733.25
2022-09-06T21:53:44.612Z,100733.43
2022-09-06T21:56:11.556Z,100732.00
2022-09-06T21:58:38.626Z,100728.99
2022-09-06T22:01:08.795Z,100723.78
2022-09-06T22:03:39.689Z,100725.16
2022-09-06T22:06:10.432Z,100722.52
2022-09-06T22:08:37.337Z,100712.48
2022-09-06T22:11:12.752Z,100706.25
2022-09-06T22:13:40.665Z,100697.36
2022-09-06T22:16:08.331Z,100691.83
2022-09-06T22:18:35.986Z,100689.75
2022-09-06T22:21:12.821Z,100690.48
2022-09-06T22:23:40.002Z,100691.92
2022-09-06T22:26:15.620Z,100692.08
2022-09-06T22:28:42.415Z,100695.98
2022-09-06T22:31:09.668Z,100690.75
2022-09-06T22:33:37.113Z,100694.73
2022-09-06T22:36:07.611Z,100695.03
2022-09-06T22:38:34.881Z,100693.77
2022-09-06T22:41:02.083Z,100688.52
2022-09-06T22:43:28.825Z,100683.34
2022-09-06T22:46:05.248Z,100679.95
2022-09-06T22:48:33.226Z,100680.44
2022-09-06T22:51:01.341Z,100682.63
2022-09-06T22:53:29.242Z,100685.16
2022-09-06T22:55:56.518Z,100681.89
2022-09-06T22:58:24.488Z,100678.56
2022-09-06T23:00:51.373Z,100675.05
2022-09-06T23:03:18.341Z,100674.74
2022-09-06T23:05:45.120Z,100676.92
2022-09-06T23:08:12.158Z,100673.45
2022-09-06T23:10:41.645Z,100671.73
2022-09-06T23:13:09.272Z,100674.25
2022-09-06T23:15:43.780Z,100674.31
2022-09-06T23:18:10.794Z,100666.73
2022-09-06T23:20:37.723Z,100662.11
2022-09-06T23:23:06.992Z,100660.33
2022-09-06T23:25:37.781Z,100660.02
2022-09-06T23:28:04.642Z,100660.35
2022-09-06T23:30:31.839Z,100660.45
2022-09-06T23:32:58.774Z,100662.80
2022-09-06T23:35:25.518Z,100661.54
2022-09-06T23:37:53.426Z,100658.20
2022-09-06T23:40:20.531Z,100656.72
2022-09-06T23:42:47.532Z,100654.98
2022-09-06T23:45:14.736Z,100658.29
2022-09-06T23:47:41.614Z,100651.30
2022-09-06T23:50:09.030Z,100644.27
2022-09-06T23:52:35.984Z,100639.35
2022-09-06T23:55:03.149Z,100636.23
2022-09-06T23:57:29.867Z,100631.04
2022-09-06T23:59:56.719Z,100627.46
